Terminal Aerodrome Forecast
Issued by NWS

Home | Current Version | Previous Version | Text Only | Print | Product List | Glossary On
Versions: 1 2 3 4 5 6 7 8 9 10 11 12 13
442
FTUS43 KJKL 251148
TAFSME
TAF
KSME 251148Z 2512/2612 18005KT P6SM SCT250
     FM251400 19010G19KT P6SM BKN200
     FM252300 16006KT P6SM BKN200
     FM260700 16005KT 5SM -SHRA OVC020=

USA.gov is the U.S. government's official web portal to all federal, state and local government web resources and services.